CDT,Max TemperatureF,Mean TemperatureF,Min TemperatureF,Max Dew PointF,MeanDew PointF,Min DewpointF,Max Humidity, Mean Humidity, Min Humidity, Max Sea Level PressureIn, Mean Sea Level PressureIn, Min Sea Level PressureIn, Max VisibilityMiles, Mean VisibilityMiles, Min VisibilityMiles, Max Wind SpeedMPH, Mean Wind SpeedMPH, Max Gust SpeedMPH,PrecipitationIn, CloudCover, Events, WindDirDegrees
2012-3-1,70,54,37,36,32,27,64,45,26,29.84,29.63,29.53,10,10,10,23,12,30,0.00,1,,175
2012-3-2,56,45,34,35,25,15,82,51,20,30.03,29.81,29.54,10,10,9,26,14,33,0.01,3,Rain,338
2012-3-3,54,40,26,22,18,10,69,44,18,30.14,30.06,30.00,10,10,10,30,11,40,0.00,2,,299
2012-3-4,70,49,28,33,27,20,72,48,24,30.22,30.04,29.97,10,10,10,28,13,35,0.00,4,,300
2012-3-5,69,51,32,37,29,22,70,49,27,30.30,30.16,29.94,10,10,10,28,15,37,0.00,0,,155
2012-3-6,70,62,54,52,44,34,69,55,40,29.92,29.79,29.72,10,10,10,40,27,48,0.00,5,,183
2012-3-7,73,59,44,56,49,33,78,67,56,30.02,29.80,29.72,10,10,9,36,23,47,T,7,Rain,198
2012-3-8,50,42,33,40,30,19,100,66,31,30.58,30.32,30.05,10,8,2,32,14,44,0.48,7,Rain-Snow-Thunderstorm,8
2012-3-9,61,45,28,31,26,21,78,51,23,30.60,30.51,30.42,10,10,10,12,4,14,0.00,1,,259
2012-3-10,61,47,32,37,32,26,76,53,29,30.40,30.26,30.08,10,10,10,21,9,26,0.00,4,,177
2012-3-11,52,44,35,50,46,37,100,77,54,30.08,29.92,29.77,10,7,2,20,12,24,0.43,8,Rain-Thunderstorm,165
2012-3-12,74,58,41,54,47,41,100,73,46,29.98,29.82,29.72,10,7,0,15,9,20,0.00,2,Fog,183
2012-3-13,78,62,45,59,51,44,96,66,36,29.98,29.92,29.85,10,10,10,23,12,31,0.00,1,,169
2012-3-14,80,70,60,64,62,60,100,79,58,29.97,29.91,29.86,10,8,5,28,18,37,0.00,4,,187
2012-3-15,79,70,60,64,63,60,100,79,58,30.01,29.96,29.91,10,8,6,26,15,31,0.00,5,,179
2012-3-16,77,69,60,65,63,60,100,82,64,29.99,29.93,29.84,10,6,1,32,16,38,0.00,5,,177
2012-3-17,77,71,64,65,63,61,100,85,69,29.85,29.82,29.76,10,9,7,32,20,41,0.00,5,,174
2012-3-18,73,68,62,63,62,60,93,81,68,29.83,29.78,29.71,10,10,9,30,21,37,0.00,7,,168
2012-3-19,68,62,55,63,56,54,100,89,78,29.76,29.69,29.58,10,7,2,31,12,39,1.31,8,Rain-Thunderstorm,152
2012-3-20,55,52,48,55,53,49,100,95,89,29.84,29.76,29.68,10,7,2,21,8,25,0.47,8,Rain,192
2012-3-21,59,52,44,55,50,43,100,93,86,29.85,29.80,29.72,10,7,2,18,7,23,0.66,7,Rain,126
2012-3-22,56,51,45,49,46,44,100,83,66,29.88,29.84,29.80,10,7,2,20,7,23,0.52,7,Rain,98
2012-3-23,64,55,45,50,48,47,100,76,52,30.01,29.95,29.86,10,10,7,17,9,21,0.05,5,Rain,316
2012-3-24,73,58,42,56,50,43,100,77,53,30.05,30.02,29.99,10,10,10,12,5,15,0.00,0,,212
2012-3-25,78,62,46,56,52,45,100,73,46,30.12,30.04,29.97,10,9,5,18,6,22,0.00,1,,159
2012-3-26,79,66,53,62,56,51,86,70,54,30.02,29.94,29.85,10,10,10,25,14,30,0.00,5,,169
2012-3-27,78,69,59,62,59,55,90,75,60,29.95,29.89,29.84,10,10,9,24,14,33,0.00,4,,189
2012-3-28,78,67,56,65,61,54,93,79,64,29.97,29.90,29.80,10,10,9,17,10,22,0.00,4,,170
2012-3-29,81,72,63,65,64,62,100,79,58,29.87,29.77,29.65,10,8,3,25,14,32,0.10,5,Rain-Thunderstorm,178
2012-3-30,79,67,55,62,57,51,100,72,43,29.84,29.78,29.74,10,9,7,17,5,26,0.00,2,,292
2012-3-31,81,66,51,65,59,50,100,77,54,29.83,29.78,29.70,10,9,6,12,6,20,0.00,3,,199